createdAt,value
2023-05-19T00:00:15.683Z,100867.31
2023-05-19T00:03:24.680Z,100803.06
2023-05-19T00:06:32.011Z,100885.75
2023-05-19T00:09:46.690Z,100796.38
2023-05-19T00:12:53.840Z,100826.59
2023-05-19T00:16:00.283Z,100860.25
2023-05-19T00:19:04.525Z,100882.88
2023-05-19T00:22:10.267Z,100828.19
2023-05-19T00:25:12.918Z,100800.22
2023-05-19T00:28:21.921Z,100881.69
2023-05-19T00:31:27.120Z,100886.19
2023-05-19T00:34:34.093Z,100888.22
2023-05-19T00:37:36.711Z,100858.22
2023-05-19T00:40:41.941Z,100901.44
2023-05-19T00:43:44.738Z,100813.06
2023-05-19T00:46:47.465Z,100850.81
2023-05-19T00:49:54.114Z,100892.88
2023-05-19T00:52:57.083Z,100796.25
2023-05-19T00:56:00.717Z,100820.13
2023-05-19T00:59:04.697Z,100837.09
2023-05-19T01:02:07.771Z,100865.88
2023-05-19T01:05:10.652Z,100797.09
2023-05-19T01:08:13.810Z,100866.69
2023-05-19T01:11:19.166Z,100835.28
2023-05-19T01:14:22.237Z,100811.41
2023-05-19T01:17:45.131Z,100814.06
2023-05-19T01:20:53.918Z,100808.47
2023-05-19T01:24:23.356Z,100819.91
2023-05-19T01:27:51.212Z,100872.97
2023-05-19T01:30:55.930Z,100871.16
2023-05-19T01:33:59.408Z,100814.44
2023-05-19T01:37:03.737Z,100782.63
2023-05-19T01:40:08.204Z,100787.13
2023-05-19T01:43:14.153Z,100807.94
2023-05-19T01:46:18.038Z,100794.25
2023-05-19T01:49:23.972Z,100862.22
2023-05-19T01:52:29.528Z,100864.03
2023-05-19T01:55:32.477Z,100817.06
2023-05-19T01:58:44.897Z,100858.88
2023-05-19T02:01:57.489Z,100824.78
2023-05-19T02:05:13.650Z,100795.00
2023-05-19T02:08:40.169Z,100854.34
2023-05-19T02:11:53.654Z,100791.31
2023-05-19T02:15:09.996Z,100853.75
2023-05-19T02:18:14.336Z,100853.75
2023-05-19T02:21:17.708Z,100849.50
2023-05-19T02:24:23.062Z,100786.66
2023-05-19T02:27:26.465Z,100848.09
2023-05-19T02:30:30.415Z,100802.81
2023-05-19T02:33:36.536Z,100796.66
2023-05-19T02:36:45.735Z,100799.75
2023-05-19T02:39:50.183Z,100855.25
2023-05-19T02:42:55.921Z,100814.66
2023-05-19T02:46:04.504Z,100823.25
2023-05-19T02:49:14.520Z,100800.16
2023-05-19T02:52:17.340Z,100851.41
2023-05-19T02:55:20.271Z,100799.34
2023-05-19T02:58:28.420Z,100860.75
2023-05-19T03:01:32.826Z,100796.28
2023-05-19T03:04:41.875Z,100853.97
2023-05-19T03:07:44.947Z,100868.44
2023-05-19T03:10:47.987Z,100815.00
2023-05-19T03:13:50.793Z,100873.78
2023-05-19T03:16:53.902Z,100828.44
2023-05-19T03:20:00.537Z,100816.63
2023-05-19T03:23:03.297Z,100800.66
2023-05-19T03:26:08.414Z,100872.47
2023-05-19T03:29:11.585Z,100799.63
2023-05-19T03:32:15.798Z,100802.72
2023-05-19T03:35:18.967Z,100879.88
2023-05-19T03:38:21.753Z,100816.00
2023-05-19T03:41:34.505Z,100802.53
2023-05-19T03:44:44.840Z,100845.44
2023-05-19T03:47:51.243Z,100871.56
2023-05-19T03:51:05.094Z,100841.50
2023-05-19T03:54:08.429Z,100879.88
2023-05-19T03:57:11.476Z,100842.72
2023-05-19T04:00:20.448Z,100883.47
2023-05-19T04:03:34.618Z,100834.75
2023-05-19T04:06:40.456Z,100890.88
2023-05-19T04:09:46.383Z,100897.75
2023-05-19T04:12:49.197Z,100858.06
2023-05-19T04:15:54.824Z,100910.50
2023-05-19T04:18:57.601Z,100832.97
2023-05-19T04:22:00.772Z,100896.63
2023-05-19T04:25:08.644Z,100861.13
2023-05-19T04:28:13.694Z,100912.56
2023-05-19T04:31:16.680Z,100929.25
2023-05-19T04:34:20.160Z,100874.31
2023-05-19T04:37:24.376Z,100847.13
2023-05-19T04:40:31.643Z,100863.84
2023-05-19T04:43:34.764Z,100849.53
2023-05-19T04:46:37.783Z,100874.19
2023-05-19T04:49:41.648Z,100919.50
2023-05-19T04:52:47.595Z,100857.59
2023-05-19T04:55:51.134Z,100882.25
2023-05-19T04:58:54.073Z,100862.44
2023-05-19T05:01:57.743Z,100855.50
2023-05-19T05:05:23.501Z,100883.72
2023-05-19T05:08:27.327Z,100945.94
2023-05-19T05:11:30.681Z,100949.13
2023-05-19T05:14:34.160Z,100947.78
2023-05-19T05:17:37.930Z,100926.50
2023-05-19T05:20:43.135Z,100866.47
2023-05-19T05:23:49.340Z,100939.72
2023-05-19T05:26:56.120Z,100956.22
2023-05-19T05:29:59.351Z,100936.09
2023-05-19T05:33:09.979Z,100944.06
2023-05-19T05:36:21.466Z,100901.47
2023-05-19T05:39:32.098Z,100967.41
2023-05-19T05:42:38.299Z,100970.25
2023-05-19T05:45:42.012Z,100956.88
2023-05-19T05:48:50.777Z,100937.81
2023-05-19T05:52:05.009Z,100921.84
2023-05-19T05:55:21.267Z,100946.56
2023-05-19T05:58:24.873Z,100908.38
2023-05-19T06:01:28.344Z,100912.84
2023-05-19T06:04:31.219Z,100964.66
2023-05-19T06:07:34.305Z,100936.94
2023-05-19T06:10:39.180Z,100889.09
2023-05-19T06:13:44.766Z,100972.22
2023-05-19T06:16:55.167Z,100988.13
2023-05-19T06:35:20.626Z,100990.19
2023-05-19T06:38:23.800Z,100999.81
2023-05-19T06:41:27.121Z,100991.66
2023-05-19T06:44:30.036Z,101002.84
2023-05-19T10:00:20.256Z,100954.00
2023-05-19T10:03:24.173Z,100946.91
2023-05-19T10:06:27.154Z,100948.31
2023-05-19T10:09:30.126Z,100944.75
2023-05-19T10:12:33.493Z,100938.25
2023-05-19T10:15:50.080Z,100941.88
2023-05-19T10:19:00.935Z,100946.06
2023-05-19T10:22:06.435Z,100939.81
2023-05-19T10:25:10.813Z,100942.63
2023-05-19T10:28:16.421Z,100928.31
2023-05-19T10:31:22.709Z,100933.97
2023-05-19T10:34:40.666Z,100936.84
2023-05-19T10:37:52.100Z,100933.91
2023-05-19T10:40:54.778Z,100935.25
2023-05-19T10:44:19.329Z,100932.97
2023-05-19T10:47:31.721Z,100925.78
2023-05-19T10:50:38.052Z,100924.31
2023-05-19T10:53:47.520Z,100925.88
2023-05-19T10:56:50.203Z,100925.94
2023-05-19T10:59:52.786Z,100915.28
2023-05-19T11:03:13.710Z,100920.53
2023-05-19T11:06:30.948Z,100917.44
2023-05-19T11:09:40.731Z,100919.00
2023-05-19T11:12:46.053Z,100906.47
2023-05-19T11:15:50.169Z,100885.09
2023-05-19T11:18:55.052Z,100856.69
2023-05-19T11:22:08.285Z,100873.56
2023-05-19T11:25:10.967Z,100913.84
2023-05-19T11:28:16.980Z,100911.78
2023-05-19T11:31:19.677Z,100908.03
2023-05-19T11:34:26.095Z,100909.84
2023-05-19T11:37:32.286Z,100909.84
2023-05-19T11:40:36.387Z,100877.09
2023-05-19T11:43:39.107Z,100879.72
2023-05-19T11:46:41.785Z,100894.84
2023-05-19T11:49:47.905Z,100896.94
2023-05-19T11:52:52.012Z,100896.56
2023-05-19T11:56:03.044Z,100896.69
2023-05-19T11:59:06.067Z,100857.97
2023-05-19T12:02:20.060Z,100871.59
2023-05-19T12:05:24.601Z,100880.28
2023-05-19T12:08:29.346Z,100870.59
2023-05-19T12:11:32.071Z,100825.38
2023-05-19T12:14:36.032Z,100866.16
2023-05-19T12:17:38.747Z,100857.25
2023-05-19T12:20:41.514Z,100853.78
2023-05-19T12:23:47.162Z,100833.28
2023-05-19T12:26:50.565Z,100843.41
2023-05-19T12:29:57.356Z,100841.00
2023-05-19T12:33:02.945Z,100844.25
2023-05-19T12:36:09.374Z,100835.56
2023-05-19T12:39:14.189Z,100832.16
2023-05-19T12:42:17.656Z,100838.41
2023-05-19T12:45:26.009Z,100837.13
2023-05-19T12:48:31.638Z,100801.03
2023-05-19T12:51:42.976Z,100813.41
2023-05-19T12:54:48.610Z,100841.50
2023-05-19T12:57:57.188Z,100846.34
2023-05-19T13:01:00.537Z,100837.84
2023-05-19T13:04:06.649Z,100836.78
2023-05-19T13:07:09.900Z,100824.38
2023-05-19T13:10:14.847Z,100825.47
2023-05-19T13:13:17.735Z,100828.22
2023-05-19T13:16:20.393Z,100831.66
2023-05-19T13:19:26.270Z,100819.69
2023-05-19T13:22:28.970Z,100813.81
2023-05-19T13:25:35.209Z,100816.16
2023-05-19T13:28:37.874Z,100791.03
2023-05-19T13:31:41.217Z,100805.31
2023-05-19T13:34:44.090Z,100801.09
2023-05-19T13:37:49.969Z,100802.22
2023-05-19T13:40:52.640Z,100808.38
2023-05-19T13:44:01.147Z,100794.38
2023-05-19T13:47:03.813Z,100796.03
2023-05-19T13:50:09.861Z,100781.69
2023-05-19T13:53:12.563Z,100784.75
2023-05-19T13:56:15.555Z,100785.03
2023-05-19T13:59:18.207Z,100786.84
2023-05-19T14:02:24.405Z,100783.22
2023-05-19T14:05:29.146Z,100785.81
2023-05-19T14:08:34.086Z,100770.56
2023-05-19T14:11:36.737Z,100774.19
2023-05-19T14:14:41.725Z,100774.66
2023-05-19T14:17:44.451Z,100773.06
2023-05-19T14:20:50.225Z,100763.00
2023-05-19T14:23:52.927Z,100763.16
2023-05-19T14:26:58.047Z,100764.06
2023-05-19T14:30:00.712Z,100767.38
2023-05-19T14:33:03.421Z,100762.50
2023-05-19T14:36:10.476Z,100765.16
2023-05-19T14:39:13.206Z,100752.41
2023-05-19T14:42:15.849Z,100749.84
2023-05-19T14:45:18.550Z,100759.84
2023-05-19T14:48:23.414Z,100764.69
2023-05-19T14:51:26.032Z,100767.13
2023-05-19T14:54:28.617Z,100765.00
2023-05-19T14:57:36.952Z,100764.72
2023-05-19T15:00:39.780Z,100752.25
2023-05-19T15:03:49.754Z,100757.66
2023-05-19T15:07:05.740Z,100756.78
2023-05-19T15:10:14.430Z,100757.66
2023-05-19T15:13:19.169Z,100739.75
2023-05-19T15:16:21.850Z,100748.78
2023-05-19T15:19:24.747Z,100751.06
2023-05-19T15:22:27.569Z,100747.88
2023-05-19T15:25:30.862Z,100744.94
2023-05-19T15:28:34.289Z,100732.66
2023-05-19T15:31:39.633Z,100737.00
2023-05-19T15:34:45.224Z,100726.75
2023-05-19T15:37:47.805Z,100719.97
2023-05-19T15:40:50.406Z,100714.72
2023-05-19T15:43:56.449Z,100736.09
2023-05-19T15:47:01.670Z,100732.38
2023-05-19T15:50:04.506Z,100720.16
2023-05-19T15:53:08.395Z,100722.47
2023-05-19T15:56:11.122Z,100727.69
2023-05-19T15:59:13.878Z,100722.69
2023-05-19T16:02:16.666Z,100725.53
2023-05-19T16:05:19.470Z,100731.28
2023-05-19T16:08:22.455Z,100718.25
2023-05-19T16:11:25.122Z,100720.19
2023-05-19T16:14:31.150Z,100715.56
2023-05-19T16:17:34.048Z,100720.97
2023-05-19T16:20:36.730Z,100714.91
2023-05-19T16:23:40.478Z,100717.63
2023-05-19T16:26:43.081Z,100719.06
2023-05-19T16:29:51.061Z,100725.88
2023-05-19T16:32:56.304Z,100713.94
2023-05-19T16:36:00.086Z,100708.81
2023-05-19T16:39:02.766Z,100714.66
2023-05-19T16:42:05.688Z,100715.47
2023-05-19T16:45:08.999Z,100705.50
2023-05-19T16:48:11.620Z,100704.66
2023-05-19T16:51:14.222Z,100686.53
2023-05-19T16:54:16.861Z,100690.50
2023-05-19T16:57:22.455Z,100683.47
2023-05-19T17:00:27.593Z,100702.03
2023-05-19T17:03:32.992Z,100694.72
2023-05-19T17:06:35.980Z,100702.44
2023-05-19T17:09:38.567Z,100684.88
2023-05-19T17:12:41.124Z,100697.06
2023-05-19T17:15:43.725Z,100697.63
2023-05-19T17:18:56.719Z,100694.31
2023-05-19T17:21:59.509Z,100689.59
2023-05-19T17:25:07.746Z,100694.06
2023-05-19T17:28:16.485Z,100674.94
2023-05-19T17:31:21.319Z,100694.19
2023-05-19T17:34:24.018Z,100682.34
2023-05-19T17:37:27.348Z,100690.44
2023-05-19T17:40:30.137Z,100698.34
2023-05-19T17:43:32.762Z,100701.34
2023-05-19T17:46:39.440Z,100700.22
2023-05-19T17:49:47.916Z,100702.09
2023-05-19T17:52:54.614Z,100696.41
2023-05-19T17:55:59.682Z,100674.66
2023-05-19T17:59:03.213Z,100687.56
2023-05-19T18:02:06.264Z,100702.38
2023-05-19T18:05:14.854Z,100697.97
2023-05-19T18:08:18.236Z,100693.84
2023-05-19T18:11:21.469Z,100703.13
2023-05-19T18:14:24.252Z,100686.91
2023-05-19T18:17:26.896Z,100684.09
2023-05-19T18:20:31.201Z,100692.28
2023-05-19T18:23:34.019Z,100700.81
2023-05-19T18:26:41.784Z,100700.50
2023-05-19T18:29:44.516Z,100699.06
2023-05-19T18:32:47.168Z,100682.69
2023-05-19T18:35:50.341Z,100703.16
2023-05-19T18:38:58.225Z,100690.56
2023-05-19T18:42:04.770Z,100660.09
2023-05-19T18:45:13.539Z,100711.47
2023-05-19T18:48:18.131Z,100727.63
2023-05-19T18:51:26.984Z,100728.06
2023-05-19T18:54:29.759Z,100725.75
2023-05-19T18:57:32.376Z,100728.78
2023-05-19T19:00:37.854Z,100734.88
2023-05-19T19:03:42.040Z,100735.53
2023-05-19T19:06:44.768Z,100737.88
2023-05-19T19:09:47.370Z,100744.03
2023-05-19T19:12:50.094Z,100748.50
2023-05-19T19:15:52.986Z,100741.69
2023-05-19T19:18:55.798Z,100740.56
2023-05-19T19:21:58.543Z,100735.03
2023-05-19T19:25:03.820Z,100744.59
2023-05-19T19:28:09.275Z,100753.88
2023-05-19T19:31:12.080Z,100742.38
2023-05-19T19:34:14.774Z,100718.44
2023-05-19T19:37:19.769Z,100739.16
2023-05-19T19:40:26.450Z,100731.66
2023-05-19T19:43:29.134Z,100725.66
2023-05-19T19:46:34.593Z,100731.50
2023-05-19T19:49:37.188Z,100740.47
2023-05-19T19:52:41.163Z,100742.44
2023-05-19T19:55:43.966Z,100750.13
2023-05-19T19:58:46.661Z,100730.63
2023-05-19T20:01:52.181Z,100749.78
2023-05-19T20:04:57.821Z,100742.47
2023-05-19T20:08:00.829Z,100742.00
2023-05-19T20:11:03.560Z,100738.28
2023-05-19T20:14:06.424Z,100718.41
2023-05-19T20:17:09.159Z,100731.66
2023-05-19T20:20:12.373Z,100732.38
2023-05-19T20:23:16.316Z,100729.00
2023-05-19T20:26:19.070Z,100732.94
2023-05-19T20:29:25.103Z,100723.91
2023-05-19T20:32:30.579Z,100715.50
2023-05-19T20:35:33.458Z,100711.75
2023-05-19T20:38:36.313Z,100719.00
2023-05-19T20:41:38.992Z,100728.28
2023-05-19T20:44:41.713Z,100721.78
2023-05-19T20:47:44.474Z,100702.13
2023-05-19T20:50:47.103Z,100714.19
2023-05-19T20:53:52.039Z,100719.31
2023-05-19T20:56:59.426Z,100714.88
2023-05-19T21:00:05.683Z,100718.72
2023-05-19T21:03:11.763Z,100716.38
2023-05-19T21:06:14.546Z,100710.94
2023-05-19T21:09:17.239Z,100698.94
2023-05-19T21:12:24.038Z,100700.50
2023-05-19T21:15:27.289Z,100715.84
2023-05-19T21:18:29.907Z,100722.41
2023-05-19T21:21:33.599Z,100719.72
2023-05-19T21:24:36.340Z,100705.81
2023-05-19T21:27:42.128Z,100717.31
2023-05-19T21:30:49.095Z,100709.34
2023-05-19T21:33:51.874Z,100710.38
2023-05-19T21:36:54.544Z,100706.00
2023-05-19T21:40:00.049Z,100707.56
2023-05-19T21:43:03.917Z,100692.09
2023-05-19T21:46:09.650Z,100704.84
2023-05-19T21:49:12.339Z,100687.41
2023-05-19T21:52:15.070Z,100701.03
2023-05-19T21:55:17.667Z,100700.56
2023-05-19T21:58:20.520Z,100697.53
2023-05-19T22:01:31.651Z,100694.78
2023-05-19T22:04:34.404Z,100689.66
2023-05-19T22:07:37.142Z,100684.28
2023-05-19T22:10:39.880Z,100696.38
2023-05-19T22:13:42.703Z,100699.78
2023-05-19T22:16:47.595Z,100699.66
2023-05-19T22:19:50.487Z,100703.88
2023-05-19T22:22:53.118Z,100709.59
2023-05-19T22:25:55.961Z,100698.72
2023-05-19T22:28:58.536Z,100696.19
2023-05-19T22:32:12.326Z,100700.25
2023-05-19T22:35:15.162Z,100698.63
2023-05-19T22:38:17.786Z,100690.25
2023-05-19T22:41:20.436Z,100687.56
2023-05-19T22:44:23.182Z,100697.13
2023-05-19T22:47:25.957Z,100696.31
2023-05-19T22:50:28.758Z,100690.38
2023-05-19T22:53:31.436Z,100688.50
2023-05-19T22:56:34.259Z,100665.38
2023-05-19T22:59:38.382Z,100682.38
2023-05-19T23:02:45.276Z,100684.03
2023-05-19T23:05:47.911Z,100683.69
2023-05-19T23:09:04.121Z,100679.81
2023-05-19T23:12:07.140Z,100671.44
2023-05-19T23:15:11.126Z,100674.34
2023-05-19T23:18:16.689Z,100654.00
2023-05-19T23:21:19.497Z,100663.44
2023-05-19T23:24:22.171Z,100662.25
2023-05-19T23:27:24.883Z,100661.53
2023-05-19T23:30:31.507Z,100662.81
2023-05-19T23:33:34.147Z,100662.31
2023-05-19T23:36:37.071Z,100659.09
2023-05-19T23:39:42.773Z,100659.66
2023-05-19T23:42:47.972Z,100660.25
2023-05-19T23:45:50.771Z,100663.00
2023-05-19T23:48:53.416Z,100650.22
2023-05-19T23:51:56.173Z,100634.34
2023-05-19T23:54:58.921Z,100640.75
2023-05-19T23:58:04.322Z,100640.03
